createdAt,value
2023-05-17T00:00:10.951Z,8.42
2023-05-17T00:00:43.389Z,8.42
2023-05-17T00:01:15.893Z,8.42
2023-05-17T00:01:48.418Z,8.40
2023-05-17T00:02:20.927Z,8.42
2023-05-17T00:02:53.450Z,8.40
2023-05-17T00:03:25.924Z,8.37
2023-05-17T00:03:58.366Z,8.39
2023-05-17T00:04:30.873Z,8.36
2023-05-17T00:05:03.323Z,8.37
2023-05-17T00:05:35.750Z,8.36
2023-05-17T00:06:08.380Z,8.39
2023-05-17T00:06:40.849Z,8.40
2023-05-17T00:07:13.386Z,8.39
2023-05-17T00:07:45.929Z,8.37
2023-05-17T00:08:18.447Z,8.37
2023-05-17T00:08:50.946Z,8.36
2023-05-17T00:09:23.479Z,8.35
2023-05-17T00:09:56.004Z,8.33
2023-05-17T00:10:28.504Z,8.32
2023-05-17T00:11:01.062Z,8.32
2023-05-17T00:11:33.548Z,8.30
2023-05-17T00:12:06.068Z,8.29
2023-05-17T00:12:38.514Z,8.26
2023-05-17T00:13:11.009Z,8.28
2023-05-17T00:13:43.483Z,8.28
2023-05-17T00:14:16.013Z,8.26
2023-05-17T00:14:48.494Z,8.26
2023-05-17T00:15:20.972Z,8.21
2023-05-17T00:15:53.588Z,8.21
2023-05-17T00:16:26.118Z,8.21
2023-05-17T00:16:58.589Z,8.20
2023-05-17T00:17:31.168Z,8.15
2023-05-17T00:18:03.702Z,8.14
2023-05-17T00:18:36.131Z,8.12
2023-05-17T00:19:08.584Z,8.14
2023-05-17T00:19:41.106Z,8.18
2023-05-17T00:20:13.546Z,8.18
2023-05-17T00:20:46.054Z,8.15
2023-05-17T00:21:18.565Z,8.15
2023-05-17T00:21:51.099Z,8.20
2023-05-17T00:22:23.620Z,8.20
2023-05-17T00:22:56.316Z,8.20
2023-05-17T00:23:28.885Z,8.20
2023-05-17T00:24:01.371Z,8.20
2023-05-17T00:24:33.868Z,8.20
2023-05-17T00:25:06.386Z,8.21
2023-05-17T00:25:38.917Z,8.22
2023-05-17T00:26:11.391Z,8.22
2023-05-17T00:26:43.866Z,8.22
2023-05-17T00:27:16.409Z,8.22
2023-05-17T00:27:48.908Z,8.22
2023-05-17T00:28:21.412Z,8.22
2023-05-17T00:28:53.903Z,8.22
2023-05-17T00:29:26.387Z,8.21
2023-05-17T00:29:58.843Z,8.22
2023-05-17T00:30:31.360Z,8.22
2023-05-17T00:31:03.865Z,8.25
2023-05-17T00:31:36.358Z,8.25
2023-05-17T00:32:08.886Z,8.25
2023-05-17T00:32:41.456Z,8.22
2023-05-17T00:33:13.931Z,8.21
2023-05-17T00:33:46.468Z,8.22
2023-05-17T00:34:18.991Z,8.21
2023-05-17T00:34:51.527Z,8.20
2023-05-17T00:35:24.239Z,8.21
2023-05-17T00:35:56.582Z,8.20
2023-05-17T00:36:29.087Z,8.21
2023-05-17T00:37:01.551Z,8.20
2023-05-17T00:37:34.020Z,8.18
2023-05-17T00:38:06.568Z,8.18
2023-05-17T00:38:39.053Z,8.20
2023-05-17T00:39:11.577Z,8.18
2023-05-17T00:39:44.087Z,8.14
2023-05-17T00:40:16.626Z,8.14
2023-05-17T00:40:49.096Z,8.17
2023-05-17T00:41:21.550Z,8.18
2023-05-17T00:41:54.051Z,8.20
2023-05-17T00:42:26.538Z,8.20
2023-05-17T00:42:59.026Z,8.21
2023-05-17T00:43:31.560Z,8.18
2023-05-17T00:44:04.098Z,8.20
2023-05-17T00:44:36.637Z,8.17
2023-05-17T00:45:09.166Z,8.17
2023-05-17T00:45:41.668Z,8.17
2023-05-17T00:46:14.197Z,8.18
2023-05-17T00:46:46.714Z,8.14
2023-05-17T00:47:19.246Z,8.15
2023-05-17T00:47:51.769Z,8.12
2023-05-17T00:48:24.311Z,8.14
2023-05-17T00:48:56.772Z,8.14
2023-05-17T00:49:29.278Z,8.15
2023-05-17T00:50:01.791Z,8.15
2023-05-17T00:50:34.270Z,8.17
2023-05-17T00:51:06.802Z,8.15
2023-05-17T00:51:39.312Z,8.15
2023-05-17T00:52:12.435Z,8.15
2023-05-17T00:52:54.182Z,8.12
2023-05-17T00:53:26.699Z,8.11
2023-05-17T00:53:59.134Z,8.10
2023-05-17T00:54:31.632Z,8.10
2023-05-17T00:55:04.112Z,8.10
2023-05-17T00:58:03.324Z,8.04
2023-05-17T00:58:35.780Z,8.07
2023-05-17T00:59:08.276Z,8.07
2023-05-17T00:59:40.700Z,8.07
2023-05-17T01:00:13.173Z,8.08
2023-05-17T01:00:45.636Z,8.08
2023-05-17T01:01:18.066Z,8.08
2023-05-17T01:01:50.496Z,8.08
2023-05-17T01:02:22.924Z,8.07
2023-05-17T01:02:55.384Z,8.04
2023-05-17T01:03:27.938Z,8.04
2023-05-17T01:04:00.367Z,8.04
2023-05-17T01:04:32.804Z,8.04
2023-05-17T01:05:05.267Z,8.04
2023-05-17T01:05:37.619Z,8.04
2023-05-17T01:06:10.156Z,8.03
2023-05-17T01:06:42.611Z,8.02
2023-05-17T01:07:15.063Z,8.00
2023-05-17T01:07:47.510Z,7.99
2023-05-17T01:08:19.943Z,7.97
2023-05-17T01:08:52.451Z,7.96
2023-05-17T01:09:31.986Z,7.96
2023-05-17T01:10:04.431Z,7.96
2023-05-17T01:10:36.918Z,7.96
2023-05-17T01:11:09.519Z,7.96
2023-05-17T01:11:41.969Z,7.96
2023-05-17T01:12:14.503Z,7.99
2023-05-17T01:12:47.022Z,7.99
2023-05-17T01:13:19.472Z,7.97
2023-05-17T01:13:51.950Z,7.97
2023-05-17T01:14:24.451Z,7.97
2023-05-17T01:14:56.912Z,7.94
2023-05-17T01:15:29.605Z,7.96
2023-05-17T01:16:01.860Z,7.94
2023-05-17T01:16:34.360Z,7.94
2023-05-17T01:17:06.894Z,7.96
2023-05-17T01:17:39.566Z,7.96
2023-05-17T01:18:12.058Z,7.94
2023-05-17T01:18:44.675Z,7.94
2023-05-17T01:19:16.932Z,7.93
2023-05-17T01:19:49.419Z,7.92
2023-05-17T01:20:21.951Z,7.90
2023-05-17T01:21:01.495Z,7.92
2023-05-17T01:21:33.927Z,7.92
2023-05-17T01:22:06.368Z,7.92
2023-05-17T01:22:38.807Z,7.90
2023-05-17T01:23:11.305Z,7.92
2023-05-17T01:23:43.790Z,7.90
2023-05-17T01:24:16.324Z,7.89
2023-05-17T01:24:48.811Z,7.87
2023-05-17T01:25:21.283Z,7.85
2023-05-17T01:25:53.702Z,7.85
2023-05-17T01:26:26.144Z,7.85
2023-05-17T01:26:58.621Z,7.82
2023-05-17T01:27:31.095Z,7.81
2023-05-17T01:28:03.618Z,7.81
2023-05-17T01:28:36.111Z,7.84
2023-05-17T01:29:08.525Z,7.82
2023-05-17T01:29:41.021Z,7.85
2023-05-17T01:30:13.497Z,7.82
2023-05-17T01:30:46.334Z,7.84
2023-05-17T01:31:18.812Z,7.84
2023-05-17T01:31:51.290Z,7.85
2023-05-17T01:32:23.800Z,7.84
2023-05-17T01:32:56.256Z,7.84
2023-05-17T01:33:28.891Z,7.84
2023-05-17T01:34:01.377Z,7.84
2023-05-17T01:34:33.696Z,7.85
2023-05-17T01:35:06.344Z,7.87
2023-05-17T01:35:38.886Z,7.84
2023-05-17T01:36:11.328Z,7.87
2023-05-17T01:36:43.832Z,7.84
2023-05-17T01:37:16.330Z,7.82
2023-05-17T01:37:48.811Z,7.79
2023-05-17T01:38:21.429Z,7.79
2023-05-17T01:38:53.861Z,7.79
2023-05-17T01:39:26.410Z,7.79
2023-05-17T01:39:59.334Z,7.81
2023-05-17T01:40:31.766Z,7.81
2023-05-17T01:41:04.204Z,7.79
2023-05-17T01:41:36.682Z,7.82
2023-05-17T01:42:09.132Z,7.79
2023-05-17T01:42:41.628Z,7.79
2023-05-17T01:43:14.072Z,7.79
2023-05-17T01:43:46.520Z,7.79
2023-05-17T01:44:18.969Z,7.79
2023-05-17T01:44:51.480Z,7.79
2023-05-17T01:45:23.987Z,7.79
2023-05-17T01:45:56.459Z,7.79
2023-05-17T01:46:28.901Z,7.78
2023-05-17T01:47:01.442Z,7.79
2023-05-17T01:47:33.928Z,7.79
2023-05-17T01:48:06.584Z,7.79
2023-05-17T01:48:38.951Z,7.78
2023-05-17T01:49:11.316Z,7.78
2023-05-17T01:49:43.837Z,7.78
2023-05-17T01:50:16.338Z,7.77
2023-05-17T01:50:48.825Z,7.74
2023-05-17T01:51:21.283Z,7.78
2023-05-17T01:51:53.719Z,7.75
2023-05-17T01:52:26.239Z,7.77
2023-05-17T01:52:58.759Z,7.77
2023-05-17T01:53:31.283Z,7.77
2023-05-17T01:54:03.805Z,7.78
2023-05-17T01:54:36.295Z,7.79
2023-05-17T01:55:08.782Z,7.78
2023-05-17T01:55:41.271Z,7.79
2023-05-17T01:56:13.841Z,7.81
2023-05-17T01:56:46.367Z,7.79
2023-05-17T01:57:18.872Z,7.77
2023-05-17T01:57:51.436Z,7.77
2023-05-17T01:58:23.927Z,7.75
2023-05-17T01:58:56.375Z,7.72
2023-05-17T01:59:28.928Z,7.74
2023-05-17T02:00:01.416Z,7.74
2023-05-17T02:00:33.854Z,7.72
2023-05-17T02:01:06.397Z,7.74
2023-05-17T02:01:38.870Z,7.72
2023-05-17T02:02:11.328Z,7.72
2023-05-17T02:02:43.835Z,7.74
2023-05-17T02:03:16.303Z,7.72
2023-05-17T02:03:48.825Z,7.72
2023-05-17T02:04:21.390Z,7.74
2023-05-17T02:04:53.893Z,7.71
2023-05-17T02:05:26.469Z,7.72
2023-05-17T02:05:58.844Z,7.72
2023-05-17T02:06:31.303Z,7.71
2023-05-17T02:07:03.811Z,7.69
2023-05-17T02:07:36.273Z,7.67
2023-05-17T02:08:08.715Z,7.66
2023-05-17T02:08:41.242Z,7.67
2023-05-17T02:09:13.730Z,7.66
2023-05-17T02:09:46.162Z,7.67
2023-05-17T02:10:18.746Z,7.66
2023-05-17T02:10:51.229Z,7.67
2023-05-17T02:11:23.785Z,7.66
2023-05-17T02:11:56.197Z,7.66
2023-05-17T02:12:28.692Z,7.63
2023-05-17T02:13:01.182Z,7.66
2023-05-17T02:13:33.707Z,7.63
2023-05-17T02:14:06.170Z,7.63
2023-05-17T02:14:38.654Z,7.62
2023-05-17T02:15:11.139Z,7.63
2023-05-17T02:15:43.640Z,7.66
2023-05-17T02:16:16.113Z,7.66
2023-05-17T02:16:48.562Z,7.66
2023-05-17T02:17:21.049Z,7.63
2023-05-17T02:17:53.567Z,7.66
2023-05-17T02:18:26.037Z,7.67
2023-05-17T02:18:58.538Z,7.67
2023-05-17T02:19:30.988Z,7.66
2023-05-17T02:20:03.388Z,7.66
2023-05-17T02:20:35.881Z,7.66
2023-05-17T02:21:08.328Z,7.66
2023-05-17T02:21:40.763Z,7.63
2023-05-17T02:22:13.237Z,7.62
2023-05-17T02:22:45.681Z,7.60
2023-05-17T02:23:18.168Z,7.59
2023-05-17T02:23:50.640Z,7.56
2023-05-17T02:24:23.205Z,7.56
2023-05-17T02:24:55.629Z,7.58
2023-05-17T02:25:28.456Z,7.58
2023-05-17T02:26:00.565Z,7.58
2023-05-17T02:26:33.063Z,7.56
2023-05-17T02:27:05.611Z,7.55
2023-05-17T02:27:38.111Z,7.52
2023-05-17T02:28:10.574Z,7.47
2023-05-17T02:28:43.061Z,7.47
2023-05-17T02:29:15.529Z,7.44
2023-05-17T02:29:48.006Z,7.40
2023-05-17T02:30:20.478Z,7.41
2023-05-17T02:30:52.967Z,7.41
2023-05-17T02:31:25.463Z,7.41
2023-05-17T02:31:57.930Z,7.44
2023-05-17T02:32:30.437Z,7.45
2023-05-17T02:33:03.063Z,7.47
2023-05-17T02:33:35.484Z,7.47
2023-05-17T02:34:07.809Z,7.47
2023-05-17T02:34:40.255Z,7.45
2023-05-17T02:35:12.763Z,7.44
2023-05-17T02:35:45.240Z,7.47
2023-05-17T02:36:17.770Z,7.44
2023-05-17T02:36:50.275Z,7.45
2023-05-17T02:37:22.728Z,7.44
2023-05-17T02:37:55.196Z,7.44
2023-05-17T02:38:27.672Z,7.42
2023-05-17T02:39:00.166Z,7.44
2023-05-17T02:39:32.647Z,7.41
2023-05-17T02:40:05.143Z,7.41
2023-05-17T02:40:37.649Z,7.40
2023-05-17T02:41:10.107Z,7.38
2023-05-17T02:41:42.570Z,7.35
2023-05-17T02:42:14.998Z,7.34
2023-05-17T02:42:47.506Z,7.34
2023-05-17T02:43:19.980Z,7.31
2023-05-17T02:43:52.458Z,7.29
2023-05-17T02:44:24.975Z,7.32
2023-05-17T02:44:57.455Z,7.32
2023-05-17T02:45:30.099Z,7.31
2023-05-17T02:46:02.334Z,7.34
2023-05-17T02:46:36.393Z,7.34
2023-05-17T02:47:07.387Z,7.35
2023-05-17T02:47:39.921Z,7.35
2023-05-17T02:48:12.351Z,7.32
2023-05-17T02:48:44.797Z,7.34
2023-05-17T02:49:17.310Z,7.34
2023-05-17T02:49:49.784Z,7.38
2023-05-17T02:50:22.281Z,7.38
2023-05-17T02:50:54.773Z,7.41
2023-05-17T02:51:27.260Z,7.42
2023-05-17T02:51:59.753Z,7.44
2023-05-17T02:52:32.287Z,7.45
2023-05-17T02:53:04.742Z,7.50
2023-05-17T02:53:37.185Z,7.49
2023-05-17T02:54:09.678Z,7.50
2023-05-17T02:54:42.170Z,7.52
2023-05-17T02:55:14.660Z,7.52
2023-05-17T02:55:47.150Z,7.49
2023-05-17T02:56:19.644Z,7.49
2023-05-17T02:56:52.135Z,7.47
2023-05-17T02:57:24.648Z,7.45
2023-05-17T02:57:57.124Z,7.45
2023-05-17T02:58:29.604Z,7.49
2023-05-17T02:59:02.104Z,7.47
2023-05-17T02:59:34.521Z,7.47
2023-05-17T03:00:06.993Z,7.47
2023-05-17T03:00:39.430Z,7.45
2023-05-17T03:01:11.881Z,7.45
2023-05-17T03:01:44.354Z,7.44
2023-05-17T03:02:16.902Z,7.42
2023-05-17T03:02:49.386Z,7.42
2023-05-17T03:03:21.936Z,7.42
2023-05-17T03:03:54.590Z,7.45
2023-05-17T03:04:26.862Z,7.45
2023-05-17T03:04:59.376Z,7.45
2023-05-17T03:05:31.852Z,7.45
2023-05-17T03:06:04.302Z,7.44
2023-05-17T03:06:36.787Z,7.42
2023-05-17T03:07:09.305Z,7.42
2023-05-17T03:07:41.779Z,7.40
2023-05-17T03:08:14.255Z,7.38
2023-05-17T03:08:46.745Z,7.38
2023-05-17T03:09:19.177Z,7.37
2023-05-17T03:09:51.657Z,7.37
2023-05-17T03:10:24.176Z,7.32
2023-05-17T03:10:56.638Z,7.32
2023-05-17T03:11:29.083Z,7.34
2023-05-17T03:12:01.528Z,7.34
2023-05-17T03:12:33.962Z,7.32
2023-05-17T03:13:06.385Z,7.29
2023-05-17T03:13:38.834Z,7.29
2023-05-17T03:14:11.271Z,7.27
2023-05-17T03:14:43.711Z,7.29
2023-05-17T03:15:16.211Z,7.24
2023-05-17T03:15:48.696Z,7.24
2023-05-17T03:16:21.168Z,7.20
2023-05-17T03:16:53.659Z,7.23
2023-05-17T03:17:26.154Z,7.20
2023-05-17T03:17:58.669Z,7.16
2023-05-17T03:18:31.081Z,7.16
2023-05-17T03:19:03.706Z,7.16
2023-05-17T03:19:36.020Z,7.12
2023-05-17T03:20:08.530Z,7.12
2023-05-17T03:20:40.990Z,7.09
2023-05-17T03:21:13.515Z,7.12
2023-05-17T03:21:45.949Z,7.12
2023-05-17T03:22:18.414Z,7.13
2023-05-17T03:22:50.874Z,7.13
2023-05-17T03:23:23.348Z,7.13
2023-05-17T03:23:55.853Z,7.16
2023-05-17T03:24:28.391Z,7.17
2023-05-17T03:25:00.854Z,7.22
2023-05-17T03:25:33.278Z,7.22
2023-05-17T03:26:05.795Z,7.20
2023-05-17T03:26:38.279Z,7.20
2023-05-17T03:27:10.795Z,7.19
2023-05-17T03:27:43.311Z,7.17
2023-05-17T03:28:15.754Z,7.12
2023-05-17T03:28:48.215Z,7.12
2023-05-17T03:29:20.734Z,7.05
2023-05-17T03:29:53.156Z,7.08
2023-05-17T03:30:25.655Z,7.09
2023-05-17T03:30:58.108Z,7.12
2023-05-17T03:31:30.505Z,7.13
2023-05-17T03:32:02.991Z,7.12
2023-05-17T03:32:35.542Z,7.13
2023-05-17T03:33:08.006Z,7.16
2023-05-17T03:33:40.552Z,7.16
2023-05-17T03:34:12.872Z,7.15
2023-05-17T03:34:45.318Z,7.15
2023-05-17T03:35:17.793Z,7.15
2023-05-17T03:35:50.448Z,7.15
2023-05-17T03:36:22.904Z,7.15
2023-05-17T03:36:55.329Z,7.15
2023-05-17T03:37:27.866Z,7.13
2023-05-17T03:38:00.361Z,7.15
2023-05-17T03:38:32.858Z,7.13
2023-05-17T03:39:05.342Z,7.13
2023-05-17T03:39:37.811Z,7.16
2023-05-17T03:40:10.252Z,7.16
2023-05-17T03:40:42.699Z,7.16
2023-05-17T03:41:15.203Z,7.16
2023-05-17T03:41:47.697Z,7.16
2023-05-17T03:42:20.193Z,7.15
2023-05-17T03:42:52.619Z,7.15
2023-05-17T03:43:25.122Z,7.15
2023-05-17T03:43:57.630Z,7.12
2023-05-17T03:44:30.148Z,7.13
2023-05-17T03:45:02.649Z,7.15
2023-05-17T03:45:35.151Z,7.13
2023-05-17T03:46:07.583Z,7.16
2023-05-17T03:46:40.072Z,7.13
2023-05-17T03:47:12.549Z,7.13
2023-05-17T03:47:45.074Z,7.09
2023-05-17T03:48:17.556Z,7.08
2023-05-17T03:48:50.025Z,7.09
2023-05-17T03:49:22.499Z,7.07
2023-05-17T03:49:55.005Z,7.07
2023-05-17T03:50:27.429Z,7.04
2023-05-17T03:50:59.887Z,7.05
2023-05-17T03:51:32.323Z,7.07
2023-05-17T03:52:04.780Z,7.07
2023-05-17T03:52:37.261Z,7.08
2023-05-17T03:53:09.768Z,7.08
2023-05-17T03:53:42.226Z,7.08
2023-05-17T03:54:14.683Z,7.07
2023-05-17T03:54:48.260Z,7.07
2023-05-17T03:55:19.632Z,7.05
2023-05-17T03:55:52.082Z,7.07
2023-05-17T03:56:24.572Z,7.04
2023-05-17T03:56:57.104Z,7.04
2023-05-17T03:57:29.616Z,7.02
2023-05-17T03:58:02.109Z,7.02
2023-05-17T03:58:34.542Z,6.99
2023-05-17T03:59:07.086Z,6.99
2023-05-17T03:59:39.617Z,7.01
2023-05-17T04:00:12.102Z,6.98
2023-05-17T04:00:44.603Z,6.98
2023-05-17T04:01:17.115Z,6.98
2023-05-17T04:01:49.603Z,6.99
2023-05-17T04:02:22.132Z,6.98
2023-05-17T04:02:54.570Z,7.02
2023-05-17T04:03:27.029Z,7.04
2023-05-17T04:03:59.593Z,7.04
2023-05-17T04:04:32.066Z,7.04
2023-05-17T04:05:04.578Z,7.04
2023-05-17T04:05:37.060Z,7.04
2023-05-17T04:06:09.540Z,7.02
2023-05-17T04:06:41.986Z,7.05
2023-05-17T04:07:14.457Z,7.04
2023-05-17T04:07:46.920Z,7.04
2023-05-17T04:08:19.389Z,7.04
2023-05-17T04:08:51.882Z,7.05
2023-05-17T04:09:24.332Z,7.07
2023-05-17T04:09:56.776Z,7.09
2023-05-17T04:10:29.245Z,7.15
2023-05-17T04:11:01.722Z,7.19
2023-05-17T04:11:34.184Z,7.20
2023-05-17T04:12:06.636Z,7.22
2023-05-17T04:12:39.113Z,7.20
2023-05-17T04:13:11.547Z,7.22
2023-05-17T04:13:44.049Z,7.24
2023-05-17T04:14:16.528Z,7.23
2023-05-17T04:14:49.038Z,7.24
2023-05-17T04:15:21.993Z,7.26
2023-05-17T04:15:53.961Z,7.26
2023-05-17T04:16:26.446Z,7.26
2023-05-17T04:16:58.950Z,7.26
2023-05-17T04:17:31.449Z,7.27
2023-05-17T04:18:04.011Z,7.27
2023-05-17T04:18:36.553Z,7.26
2023-05-17T04:19:08.938Z,7.24
2023-05-17T04:19:41.369Z,7.27
2023-05-17T04:20:13.860Z,7.27
2023-05-17T04:20:46.351Z,7.29
2023-05-17T04:21:18.810Z,7.29
2023-05-17T04:21:51.249Z,7.29
2023-05-17T04:22:23.701Z,7.29
2023-05-17T04:22:56.167Z,7.29
2023-05-17T04:23:28.662Z,7.31
2023-05-17T04:24:01.135Z,7.32
2023-05-17T04:24:33.677Z,7.29
2023-05-17T04:25:06.123Z,7.32
2023-05-17T04:25:38.615Z,7.34
2023-05-17T04:26:11.090Z,7.35
2023-05-17T04:26:43.596Z,7.38
2023-05-17T04:27:16.080Z,7.38
2023-05-17T04:27:48.580Z,7.38
2023-05-17T04:28:21.062Z,7.41
2023-05-17T04:28:53.524Z,7.42
2023-05-17T04:29:26.035Z,7.44
2023-05-17T04:29:58.524Z,7.44
2023-05-17T04:30:30.974Z,7.45
2023-05-17T04:31:03.430Z,7.45
2023-05-17T04:31:35.867Z,7.47
2023-05-17T04:32:08.310Z,7.49
2023-05-17T04:32:40.785Z,7.50
2023-05-17T04:33:14.312Z,7.50
2023-05-17T04:33:45.856Z,7.52
2023-05-17T04:34:18.292Z,7.53
2023-05-17T04:34:50.735Z,7.55
2023-05-17T04:35:23.254Z,7.56
2023-05-17T04:35:55.768Z,7.56
2023-05-17T04:36:28.237Z,7.56
2023-05-17T04:37:00.744Z,7.58
2023-05-17T04:37:33.252Z,7.58
2023-05-17T04:38:05.755Z,7.56
2023-05-17T04:38:38.364Z,7.59
2023-05-17T04:39:10.849Z,7.59
2023-05-17T04:39:43.353Z,7.59
2023-05-17T04:40:15.825Z,7.62
2023-05-17T04:40:48.326Z,7.66
2023-05-17T04:41:20.811Z,7.66
2023-05-17T04:41:53.318Z,7.66
2023-05-17T04:42:25.770Z,7.67
2023-05-17T04:42:58.241Z,7.67
2023-05-17T04:43:30.725Z,7.67
2023-05-17T04:44:03.236Z,7.69
2023-05-17T04:44:35.683Z,7.69
2023-05-17T04:45:08.139Z,7.69
2023-05-17T04:45:40.594Z,7.71
2023-05-17T04:46:13.079Z,7.69
2023-05-17T04:46:45.569Z,7.72
2023-05-17T04:47:18.103Z,7.74
2023-05-17T04:47:50.618Z,7.74
2023-05-17T04:48:23.122Z,7.75
2023-05-17T04:48:55.689Z,7.78
2023-05-17T04:49:28.013Z,7.77
2023-05-17T04:50:00.488Z,7.81
2023-05-17T04:50:32.914Z,7.81
2023-05-17T04:51:05.486Z,7.85
2023-05-17T04:51:37.939Z,7.87
2023-05-17T04:52:10.388Z,7.90
2023-05-17T04:52:42.879Z,7.89
2023-05-17T04:53:15.313Z,7.90
2023-05-17T04:53:47.798Z,7.93
2023-05-17T04:54:20.283Z,7.94
2023-05-17T04:54:52.793Z,7.96
2023-05-17T04:55:25.300Z,7.97
2023-05-17T04:55:57.854Z,7.97
2023-05-17T04:56:30.363Z,8.00
2023-05-17T04:57:02.870Z,7.97
2023-05-17T04:57:35.379Z,8.03
2023-05-17T04:58:07.906Z,8.04
2023-05-17T04:58:40.369Z,8.07
2023-05-17T04:59:12.800Z,8.07
2023-05-17T04:59:45.259Z,8.10
2023-05-17T05:00:17.756Z,8.10
2023-05-17T05:00:50.198Z,8.12
2023-05-17T05:01:22.637Z,8.12
2023-05-17T05:01:55.071Z,8.14
2023-05-17T05:02:27.567Z,8.17
2023-05-17T05:03:00.101Z,8.20
2023-05-17T05:03:32.586Z,8.20
2023-05-17T05:04:05.156Z,8.22
2023-05-17T05:04:37.693Z,8.26
2023-05-17T05:05:10.047Z,8.28
2023-05-17T05:05:42.479Z,8.29
2023-05-17T05:06:14.924Z,8.33
2023-05-17T05:06:47.412Z,8.36
2023-05-17T05:07:19.899Z,8.36
2023-05-17T05:07:52.428Z,8.40
2023-05-17T05:08:24.968Z,8.44
2023-05-17T05:08:57.478Z,8.47
2023-05-17T05:09:30.790Z,8.48
2023-05-17T05:10:02.622Z,8.51
2023-05-17T05:10:35.098Z,8.55
2023-05-17T05:11:07.641Z,8.62
2023-05-17T05:11:40.206Z,8.65
2023-05-17T05:12:12.737Z,8.71
2023-05-17T05:12:45.305Z,8.79
2023-05-17T05:13:17.812Z,8.83
2023-05-17T05:13:50.298Z,8.84
2023-05-17T05:14:22.985Z,8.88
2023-05-17T05:14:55.274Z,8.91
2023-05-17T05:15:27.904Z,8.94
2023-05-17T05:16:00.302Z,8.96
2023-05-17T05:16:32.837Z,8.96
2023-05-17T05:17:05.318Z,8.99
2023-05-17T05:17:37.910Z,9.04
2023-05-17T05:18:10.420Z,9.04
2023-05-17T05:18:42.963Z,9.09
2023-05-17T05:19:15.470Z,9.12
2023-05-17T05:19:47.927Z,9.13
2023-05-17T05:20:20.352Z,9.15
2023-05-17T05:20:52.864Z,9.16
2023-05-17T05:21:25.439Z,9.21
2023-05-17T05:21:57.894Z,9.20
2023-05-17T05:22:30.362Z,9.23
2023-05-17T05:23:02.841Z,9.24
2023-05-17T05:23:35.362Z,9.24
2023-05-17T05:24:07.813Z,9.28
2023-05-17T05:24:40.274Z,9.30
2023-05-17T05:25:12.740Z,9.31
2023-05-17T05:25:45.224Z,9.34
2023-05-17T05:26:17.791Z,9.38
2023-05-17T05:26:50.264Z,9.35
2023-05-17T05:27:22.717Z,9.38
2023-05-17T05:27:55.195Z,9.39
2023-05-17T05:28:27.654Z,9.42
2023-05-17T05:29:00.119Z,9.45
2023-05-17T05:29:32.597Z,9.45
2023-05-17T05:30:05.058Z,9.49
2023-05-17T05:30:37.560Z,9.50
2023-05-17T05:31:10.031Z,9.53
2023-05-17T05:31:42.621Z,9.56
2023-05-17T05:32:15.019Z,9.57
2023-05-17T05:32:47.588Z,9.60
2023-05-17T05:33:20.135Z,9.61
2023-05-17T05:33:52.610Z,9.66
2023-05-17T05:34:25.031Z,9.70
2023-05-17T05:34:57.568Z,9.70
2023-05-17T05:35:30.500Z,9.75
2023-05-17T05:36:02.547Z,9.78
2023-05-17T05:36:35.026Z,9.83
2023-05-17T05:37:07.470Z,9.85
2023-05-17T05:37:39.912Z,9.88
2023-05-17T05:38:12.367Z,9.88
2023-05-17T05:38:44.812Z,9.91
2023-05-17T05:39:17.340Z,9.93
2023-05-17T05:39:49.822Z,9.94
2023-05-17T05:40:22.371Z,9.97
2023-05-17T05:40:54.830Z,10.00
2023-05-17T05:41:27.337Z,10.04
2023-05-17T05:41:59.795Z,10.07
2023-05-17T05:42:32.264Z,10.10
2023-05-17T05:43:04.775Z,10.17
2023-05-17T05:43:37.279Z,10.21
2023-05-17T05:44:09.754Z,10.24
2023-05-17T05:44:42.247Z,10.28
2023-05-17T05:45:14.695Z,10.36
2023-05-17T05:45:47.210Z,10.40
2023-05-17T05:46:19.668Z,10.51
2023-05-17T05:46:52.119Z,10.53
2023-05-17T05:47:24.622Z,10.59
2023-05-17T05:47:57.148Z,10.66
2023-05-17T05:48:29.746Z,10.73
2023-05-17T05:49:02.234Z,10.80
2023-05-17T05:49:34.631Z,10.86
2023-05-17T05:50:07.082Z,10.96
2023-05-17T05:50:39.522Z,11.07
2023-05-17T05:51:12.027Z,11.16
2023-05-17T05:51:45.377Z,11.29
2023-05-17T05:52:17.819Z,11.44
2023-05-17T05:52:50.290Z,11.61
2023-05-17T05:53:22.866Z,11.83
2023-05-17T05:53:55.336Z,12.13
2023-05-17T05:54:27.731Z,12.41
2023-05-17T05:55:00.251Z,12.66
2023-05-17T05:55:32.730Z,12.99
2023-05-17T05:56:05.179Z,13.33
2023-05-17T05:56:37.634Z,13.71
2023-05-17T05:57:10.110Z,14.02
2023-05-17T05:57:42.596Z,14.31
2023-05-17T05:58:15.119Z,14.54
2023-05-17T05:58:47.586Z,14.75
2023-05-17T05:59:20.044Z,14.99
2023-05-17T05:59:52.518Z,15.21
2023-05-17T06:00:24.965Z,15.45
2023-05-17T06:00:57.456Z,15.72
2023-05-17T06:01:29.928Z,16.03
2023-05-17T06:02:02.425Z,16.33
2023-05-17T06:02:34.969Z,16.63
2023-05-17T06:03:07.448Z,16.85
2023-05-17T06:03:39.902Z,17.07
2023-05-17T06:04:12.399Z,17.26
2023-05-17T06:04:46.022Z,17.40
2023-05-17T06:05:17.481Z,17.55
2023-05-17T06:05:50.046Z,17.70
2023-05-17T06:06:22.463Z,17.89
2023-05-17T06:06:54.920Z,18.07
2023-05-17T06:07:27.411Z,18.25
2023-05-17T06:07:59.913Z,18.37
2023-05-17T06:08:32.369Z,18.55
2023-05-17T06:09:04.966Z,18.76
2023-05-17T06:09:37.432Z,18.99
2023-05-17T06:10:09.929Z,19.13
2023-05-17T06:10:42.404Z,19.29
2023-05-17T06:11:14.885Z,19.38
2023-05-17T06:11:47.340Z,19.51
2023-05-17T06:12:19.825Z,19.72
2023-05-17T06:12:52.320Z,19.88
2023-05-17T06:13:24.814Z,20.08
2023-05-17T06:13:57.336Z,20.23
2023-05-17T06:14:29.812Z,20.38
2023-05-17T06:15:02.319Z,20.41
2023-05-17T06:15:34.816Z,20.47
2023-05-17T06:16:07.290Z,20.15
2023-05-17T06:16:39.743Z,20.12
2023-05-17T06:17:12.487Z,20.27
2023-05-17T06:17:45.028Z,20.49
2023-05-17T06:18:17.614Z,20.61
2023-05-17T06:18:51.412Z,20.83
2023-05-17T06:19:22.708Z,20.83
2023-05-17T06:19:55.134Z,20.72
2023-05-17T06:20:27.941Z,20.80
2023-05-17T06:21:00.209Z,20.86
2023-05-17T06:21:32.808Z,20.93
2023-05-17T06:22:05.248Z,20.76
2023-05-17T06:22:37.747Z,20.47
2023-05-17T06:23:10.267Z,20.30
2023-05-17T06:23:42.754Z,20.51
2023-05-17T06:24:15.246Z,20.68
2023-05-17T06:24:47.819Z,20.80
2023-05-17T06:25:20.236Z,20.98
2023-05-17T06:25:52.760Z,21.29
2023-05-17T06:26:25.270Z,21.23
2023-05-17T06:26:57.788Z,21.09
2023-05-17T06:27:30.263Z,20.84
2023-05-17T06:28:02.746Z,20.54
2023-05-17T06:28:35.197Z,20.30
2023-05-17T06:29:07.701Z,20.02
2023-05-17T06:29:40.281Z,19.97
2023-05-17T06:30:12.774Z,20.31
2023-05-17T06:30:45.289Z,20.61
2023-05-17T06:31:19.117Z,20.90
2023-05-17T06:31:50.344Z,21.27
2023-05-17T06:32:22.859Z,21.60
2023-05-17T06:32:55.399Z,21.95
2023-05-17T06:33:27.817Z,22.17
2023-05-17T06:34:00.359Z,22.19
2023-05-17T06:34:32.765Z,22.20
2023-05-17T06:35:05.346Z,22.06
2023-05-17T06:35:47.947Z,21.78
2023-05-17T06:36:10.314Z,21.74
2023-05-17T06:36:42.893Z,21.79
2023-05-17T06:37:15.439Z,21.99
2023-05-17T06:37:47.940Z,22.31
2023-05-17T06:38:20.413Z,22.65
2023-05-17T06:38:52.876Z,22.89
2023-05-17T06:39:25.322Z,22.72
2023-05-17T06:40:00.303Z,22.65
2023-05-17T06:40:30.302Z,22.52
2023-05-17T06:41:02.809Z,22.32
2023-05-17T06:41:35.315Z,22.17
2023-05-17T06:42:07.833Z,22.31
2023-05-17T06:42:40.381Z,22.41
2023-05-17T06:43:12.896Z,22.59
2023-05-17T06:43:45.367Z,22.71
2023-05-17T06:44:17.916Z,22.90
2023-05-17T06:44:50.368Z,23.17
2023-05-17T06:45:22.818Z,23.20
2023-05-17T06:45:55.377Z,23.52
2023-05-17T06:46:27.913Z,23.80
2023-05-17T06:47:00.492Z,24.05
2023-05-17T06:47:33.040Z,24.16
2023-05-17T06:48:05.499Z,24.29
2023-05-17T06:48:38.091Z,24.12
2023-05-17T06:49:10.617Z,23.95
2023-05-17T06:49:42.935Z,23.68
2023-05-17T06:50:15.390Z,23.49
2023-05-17T06:50:47.907Z,23.40
2023-05-17T06:51:20.384Z,23.82
2023-05-17T06:51:52.851Z,24.23
2023-05-17T06:52:25.319Z,24.63
2023-05-17T06:53:05.408Z,25.06
2023-05-17T06:53:37.965Z,25.64
2023-05-17T06:54:10.493Z,25.89
2023-05-17T06:54:42.976Z,25.93
2023-05-17T06:55:15.510Z,25.74
2023-05-17T06:55:48.012Z,25.28
2023-05-17T06:56:20.510Z,24.91
2023-05-17T06:56:52.997Z,24.47
2023-05-17T06:57:25.481Z,24.20
2023-05-17T06:57:57.966Z,24.08
2023-05-17T06:58:30.426Z,24.20
2023-05-17T06:59:02.915Z,24.13
2023-05-17T06:59:35.433Z,23.82
2023-05-17T07:00:07.976Z,23.53
2023-05-17T07:00:40.497Z,23.27
2023-05-17T07:01:12.987Z,23.40
2023-05-17T07:01:45.477Z,23.82
2023-05-17T07:02:17.976Z,24.50
2023-05-17T07:02:50.578Z,25.06
2023-05-17T07:03:23.061Z,24.91
2023-05-17T07:03:55.565Z,24.59
2023-05-17T07:04:28.026Z,24.23
2023-05-17T07:05:00.563Z,23.82
2023-05-17T07:05:33.425Z,23.34
2023-05-17T07:06:05.572Z,22.80
2023-05-17T07:06:38.119Z,22.34
2023-05-17T07:07:10.608Z,21.85
2023-05-17T07:07:43.085Z,21.44
2023-05-17T07:08:15.580Z,21.02
2023-05-17T07:08:48.144Z,20.69
2023-05-17T07:09:20.652Z,20.43
2023-05-17T07:09:53.508Z,20.53
2023-05-17T07:10:26.054Z,21.30
2023-05-17T07:10:58.514Z,21.91
2023-05-17T07:11:31.015Z,21.78
2023-05-17T07:12:03.478Z,21.59